sensor_id;sensor_type;location;lat;lon;timestamp;temperature;humidity
27506;DHT22;14939;43.596;1.320;2023-05-10T00:00:59;12.40;99.90
27506;DHT22;14939;43.596;1.320;2023-05-10T00:03:24;12.40;99.90
27506;DHT22;14939;43.596;1.320;2023-05-10T00:05:50;12.40;99.90
27506;DHT22;14939;43.596;1.320;2023-05-10T00:08:16;12.40;99.90
27506;DHT22;14939;43.596;1.320;2023-05-10T00:10:41;12.30;99.90
27506;DHT22;14939;43.596;1.320;2023-05-10T00:13:07;12.30;99.90
27506;DHT22;14939;43.596;1.320;2023-05-10T00:15:33;12.20;99.90
27506;DHT22;14939;43.596;1.320;2023-05-10T00:18:00;12.20;99.90
27506;DHT22;14939;43.596;1.320;2023-05-10T00:20:26;12.30;99.90
27506;DHT22;14939;43.596;1.320;2023-05-10T00:22:52;12.30;99.90
27506;DHT22;14939;43.596;1.320;2023-05-10T00:25:17;12.40;99.90
27506;DHT22;14939;43.596;1.320;2023-05-10T00:27:43;12.40;99.90
27506;DHT22;14939;43.596;1.320;2023-05-10T00:30:09;12.40;99.90
27506;DHT22;14939;43.596;1.320;2023-05-10T00:32:35;12.50;99.90
27506;DHT22;14939;43.596;1.320;2023-05-10T00:35:01;12.50;99.90
27506;DHT22;14939;43.596;1.320;2023-05-10T00:37:27;12.40;99.90
27506;DHT22;14939;43.596;1.320;2023-05-10T00:39:53;12.40;99.90
27506;DHT22;14939;43.596;1.320;2023-05-10T00:42:18;12.40;99.90
27506;DHT22;14939;43.596;1.320;2023-05-10T00:44:44;12.40;99.90
27506;DHT22;14939;43.596;1.320;2023-05-10T00:47:10;12.30;99.90
27506;DHT22;14939;43.596;1.320;2023-05-10T00:49:37;12.40;99.90
27506;DHT22;14939;43.596;1.320;2023-05-10T00:52:03;12.40;99.90
27506;DHT22;14939;43.596;1.320;2023-05-10T00:54:29;12.30;99.90
27506;DHT22;14939;43.596;1.320;2023-05-10T00:56:55;12.40;99.90
27506;DHT22;14939;43.596;1.320;2023-05-10T00:59:22;12.40;99.90
27506;DHT22;14939;43.596;1.320;2023-05-10T01:01:48;12.40;99.90
27506;DHT22;14939;43.596;1.320;2023-05-10T01:04:14;12.50;99.90
27506;DHT22;14939;43.596;1.320;2023-05-10T01:06:41;12.50;99.90
27506;DHT22;14939;43.596;1.320;2023-05-10T01:09:07;12.50;99.90
27506;DHT22;14939;43.596;1.320;2023-05-10T01:11:38;12.50;99.90
27506;DHT22;14939;43.596;1.320;2023-05-10T01:14:05;12.50;99.90
27506;DHT22;14939;43.596;1.320;2023-05-10T01:16:39;12.40;99.90
27506;DHT22;14939;43.596;1.320;2023-05-10T01:19:35;12.40;99.90
27506;DHT22;14939;43.596;1.320;2023-05-10T01:32:57;12.20;99.90
27506;DHT22;14939;43.596;1.320;2023-05-10T01:38:07;12.10;99.90
27506;DHT22;14939;43.596;1.320;2023-05-10T01:40:46;12.10;99.90
27506;DHT22;14939;43.596;1.320;2023-05-10T01:43:26;12.10;99.90
27506;DHT22;14939;43.596;1.320;2023-05-10T01:46:03;12.10;99.90
27506;DHT22;14939;43.596;1.320;2023-05-10T01:48:51;12.00;99.90
27506;DHT22;14939;43.596;1.320;2023-05-10T01:51:23;12.00;99.90
27506;DHT22;14939;43.596;1.320;2023-05-10T01:53:57;12.00;99.90
27506;DHT22;14939;43.596;1.320;2023-05-10T01:56:26;12.00;99.90
27506;DHT22;14939;43.596;1.320;2023-05-10T01:58:55;12.10;99.90
27506;DHT22;14939;43.596;1.320;2023-05-10T02:01:21;12.10;99.90
27506;DHT22;14939;43.596;1.320;2023-05-10T02:03:49;12.10;99.90
27506;DHT22;14939;43.596;1.320;2023-05-10T02:06:17;12.10;99.90
27506;DHT22;14939;43.596;1.320;2023-05-10T02:08:45;12.00;99.90
27506;DHT22;14939;43.596;1.320;2023-05-10T02:11:13;12.10;99.90
27506;DHT22;14939;43.596;1.320;2023-05-10T02:13:41;12.10;99.90
27506;DHT22;14939;43.596;1.320;2023-05-10T02:16:09;12.10;99.90
27506;DHT22;14939;43.596;1.320;2023-05-10T02:18:36;12.10;99.90
27506;DHT22;14939;43.596;1.320;2023-05-10T02:21:02;12.10;99.90
27506;DHT22;14939;43.596;1.320;2023-05-10T02:23:29;12.00;99.90
27506;DHT22;14939;43.596;1.320;2023-05-10T02:25:56;12.00;99.90
27506;DHT22;14939;43.596;1.320;2023-05-10T02:28:24;12.10;99.90
27506;DHT22;14939;43.596;1.320;2023-05-10T02:30:52;12.10;99.90
27506;DHT22;14939;43.596;1.320;2023-05-10T02:33:19;12.20;99.90
27506;DHT22;14939;43.596;1.320;2023-05-10T02:35:46;12.20;99.90
27506;DHT22;14939;43.596;1.320;2023-05-10T02:38:14;12.20;99.90
27506;DHT22;14939;43.596;1.320;2023-05-10T02:40:41;12.20;99.90
27506;DHT22;14939;43.596;1.320;2023-05-10T02:43:11;12.20;99.90
27506;DHT22;14939;43.596;1.320;2023-05-10T02:45:38;12.20;99.90
27506;DHT22;14939;43.596;1.320;2023-05-10T02:48:05;12.20;99.90
27506;DHT22;14939;43.596;1.320;2023-05-10T02:50:33;12.20;99.90
27506;DHT22;14939;43.596;1.320;2023-05-10T02:53:15;12.10;99.90
27506;DHT22;14939;43.596;1.320;2023-05-10T02:55:41;12.10;99.90
27506;DHT22;14939;43.596;1.320;2023-05-10T02:58:11;12.10;99.90
27506;DHT22;14939;43.596;1.320;2023-05-10T03:00:38;12.00;99.90
27506;DHT22;14939;43.596;1.320;2023-05-10T03:03:03;12.00;99.90
27506;DHT22;14939;43.596;1.320;2023-05-10T03:05:29;11.80;99.90
27506;DHT22;14939;43.596;1.320;2023-05-10T03:07:55;11.60;99.90
27506;DHT22;14939;43.596;1.320;2023-05-10T03:10:24;11.30;99.90
27506;DHT22;14939;43.596;1.320;2023-05-10T03:13:13;11.10;99.90
27506;DHT22;14939;43.596;1.320;2023-05-10T03:15:47;11.00;99.90
27506;DHT22;14939;43.596;1.320;2023-05-10T03:18:22;10.80;99.90
27506;DHT22;14939;43.596;1.320;2023-05-10T03:20:50;10.80;99.90
27506;DHT22;14939;43.596;1.320;2023-05-10T03:26:07;10.70;99.90
27506;DHT22;14939;43.596;1.320;2023-05-10T03:28:34;10.70;99.90
27506;DHT22;14939;43.596;1.320;2023-05-10T03:31:02;10.80;99.90
27506;DHT22;14939;43.596;1.320;2023-05-10T03:33:29;10.80;99.90
27506;DHT22;14939;43.596;1.320;2023-05-10T03:35:55;10.80;99.90
27506;DHT22;14939;43.596;1.320;2023-05-10T03:38:21;10.80;99.90
27506;DHT22;14939;43.596;1.320;2023-05-10T03:40:46;10.80;99.90
27506;DHT22;14939;43.596;1.320;2023-05-10T03:43:12;10.90;99.90
27506;DHT22;14939;43.596;1.320;2023-05-10T03:45:38;10.90;99.90
27506;DHT22;14939;43.596;1.320;2023-05-10T03:48:03;10.90;99.90
27506;DHT22;14939;43.596;1.320;2023-05-10T03:50:29;10.90;99.90
27506;DHT22;14939;43.596;1.320;2023-05-10T03:52:55;11.00;99.90
27506;DHT22;14939;43.596;1.320;2023-05-10T03:55:21;11.00;99.90
27506;DHT22;14939;43.596;1.320;2023-05-10T03:57:47;11.00;99.90
27506;DHT22;14939;43.596;1.320;2023-05-10T04:00:15;11.00;99.90
27506;DHT22;14939;43.596;1.320;2023-05-10T04:02:41;11.00;99.90
27506;DHT22;14939;43.596;1.320;2023-05-10T04:05:07;11.00;99.90
27506;DHT22;14939;43.596;1.320;2023-05-10T04:07:33;11.10;99.90
27506;DHT22;14939;43.596;1.320;2023-05-10T04:09:58;11.10;99.90
27506;DHT22;14939;43.596;1.320;2023-05-10T04:12:43;11.10;99.90
27506;DHT22;14939;43.596;1.320;2023-05-10T04:15:09;11.20;99.90
27506;DHT22;14939;43.596;1.320;2023-05-10T04:17:35;11.20;99.90
27506;DHT22;14939;43.596;1.320;2023-05-10T04:20:00;11.20;99.90
27506;DHT22;14939;43.596;1.320;2023-05-10T04:22:26;11.20;99.90
27506;DHT22;14939;43.596;1.320;2023-05-10T04:24:53;11.20;99.90
27506;DHT22;14939;43.596;1.320;2023-05-10T04:27:18;11.10;99.90
27506;DHT22;14939;43.596;1.320;2023-05-10T04:29:44;11.20;99.90
27506;DHT22;14939;43.596;1.320;2023-05-10T04:32:10;11.20;99.90
27506;DHT22;14939;43.596;1.320;2023-05-10T04:34:36;11.20;99.90
27506;DHT22;14939;43.596;1.320;2023-05-10T04:37:02;11.20;99.90
27506;DHT22;14939;43.596;1.320;2023-05-10T04:39:28;11.30;99.90
27506;DHT22;14939;43.596;1.320;2023-05-10T04:41:53;11.30;99.90
27506;DHT22;14939;43.596;1.320;2023-05-10T04:44:19;11.30;99.90
27506;DHT22;14939;43.596;1.320;2023-05-10T04:46:45;11.20;99.90
27506;DHT22;14939;43.596;1.320;2023-05-10T04:49:10;11.20;99.90
27506;DHT22;14939;43.596;1.320;2023-05-10T04:51:37;11.20;99.90
27506;DHT22;14939;43.596;1.320;2023-05-10T04:54:02;11.20;99.90
27506;DHT22;14939;43.596;1.320;2023-05-10T04:56:28;11.10;99.90
27506;DHT22;14939;43.596;1.320;2023-05-10T04:58:54;11.10;99.90
27506;DHT22;14939;43.596;1.320;2023-05-10T05:01:19;11.10;99.90
27506;DHT22;14939;43.596;1.320;2023-05-10T05:03:45;11.10;99.90
27506;DHT22;14939;43.596;1.320;2023-05-10T05:06:11;11.10;99.90
27506;DHT22;14939;43.596;1.320;2023-05-10T05:08:37;11.00;99.90
27506;DHT22;14939;43.596;1.320;2023-05-10T05:11:02;11.10;99.90
27506;DHT22;14939;43.596;1.320;2023-05-10T05:13:28;11.20;99.90
27506;DHT22;14939;43.596;1.320;2023-05-10T05:15:53;11.30;99.90
27506;DHT22;14939;43.596;1.320;2023-05-10T05:18:19;11.20;99.90
27506;DHT22;14939;43.596;1.320;2023-05-10T05:20:45;11.10;99.90
27506;DHT22;14939;43.596;1.320;2023-05-10T05:23:11;11.10;99.90
27506;DHT22;14939;43.596;1.320;2023-05-10T05:25:36;11.00;99.90
27506;DHT22;14939;43.596;1.320;2023-05-10T05:28:02;11.00;99.90
27506;DHT22;14939;43.596;1.320;2023-05-10T05:30:28;11.10;99.90
27506;DHT22;14939;43.596;1.320;2023-05-10T05:32:53;11.10;99.90
27506;DHT22;14939;43.596;1.320;2023-05-10T05:35:19;11.10;99.90
27506;DHT22;14939;43.596;1.320;2023-05-10T05:37:45;11.10;99.90
27506;DHT22;14939;43.596;1.320;2023-05-10T05:40:12;11.10;99.90
27506;DHT22;14939;43.596;1.320;2023-05-10T05:42:38;11.10;99.90
27506;DHT22;14939;43.596;1.320;2023-05-10T05:45:05;11.10;99.90
27506;DHT22;14939;43.596;1.320;2023-05-10T05:47:30;11.10;99.90
27506;DHT22;14939;43.596;1.320;2023-05-10T05:49:56;11.20;99.90
27506;DHT22;14939;43.596;1.320;2023-05-10T05:52:22;11.20;99.90
27506;DHT22;14939;43.596;1.320;2023-05-10T05:54:47;11.10;99.90
27506;DHT22;14939;43.596;1.320;2023-05-10T05:57:13;11.10;99.90
27506;DHT22;14939;43.596;1.320;2023-05-10T05:59:39;11.20;99.90
27506;DHT22;14939;43.596;1.320;2023-05-10T06:02:09;11.40;99.90
27506;DHT22;14939;43.596;1.320;2023-05-10T06:04:35;11.60;99.90
27506;DHT22;14939;43.596;1.320;2023-05-10T06:07:01;11.70;99.90
27506;DHT22;14939;43.596;1.320;2023-05-10T06:09:26;11.60;99.90
27506;DHT22;14939;43.596;1.320;2023-05-10T06:11:52;11.60;99.90
27506;DHT22;14939;43.596;1.320;2023-05-10T06:14:20;11.50;99.90
27506;DHT22;14939;43.596;1.320;2023-05-10T06:16:46;11.50;99.90
27506;DHT22;14939;43.596;1.320;2023-05-10T06:19:12;11.40;99.90
27506;DHT22;14939;43.596;1.320;2023-05-10T06:21:38;11.40;99.90
27506;DHT22;14939;43.596;1.320;2023-05-10T06:24:03;11.40;99.90
27506;DHT22;14939;43.596;1.320;2023-05-10T06:26:30;11.30;99.90
27506;DHT22;14939;43.596;1.320;2023-05-10T06:28:56;11.40;99.90
27506;DHT22;14939;43.596;1.320;2023-05-10T06:31:22;11.50;99.90
27506;DHT22;14939;43.596;1.320;2023-05-10T06:33:47;11.60;99.90
27506;DHT22;14939;43.596;1.320;2023-05-10T06:36:13;11.70;99.90
27506;DHT22;14939;43.596;1.320;2023-05-10T06:38:39;11.80;99.90
27506;DHT22;14939;43.596;1.320;2023-05-10T06:41:04;11.90;99.90
27506;DHT22;14939;43.596;1.320;2023-05-10T06:43:31;11.90;99.90
27506;DHT22;14939;43.596;1.320;2023-05-10T06:45:57;12.00;99.90
27506;DHT22;14939;43.596;1.320;2023-05-10T06:48:23;12.00;99.90
27506;DHT22;14939;43.596;1.320;2023-05-10T06:50:48;12.10;99.90
27506;DHT22;14939;43.596;1.320;2023-05-10T06:53:14;12.20;99.90
27506;DHT22;14939;43.596;1.320;2023-05-10T06:55:40;12.20;99.90
27506;DHT22;14939;43.596;1.320;2023-05-10T06:58:06;12.30;99.90
27506;DHT22;14939;43.596;1.320;2023-05-10T07:00:32;12.30;99.90
27506;DHT22;14939;43.596;1.320;2023-05-10T07:02:57;12.40;99.90
27506;DHT22;14939;43.596;1.320;2023-05-10T07:05:23;12.50;99.90
27506;DHT22;14939;43.596;1.320;2023-05-10T07:07:49;12.50;99.90
27506;DHT22;14939;43.596;1.320;2023-05-10T07:10:15;12.60;99.90
27506;DHT22;14939;43.596;1.320;2023-05-10T07:12:41;12.70;99.90
27506;DHT22;14939;43.596;1.320;2023-05-10T07:15:07;12.90;99.90
27506;DHT22;14939;43.596;1.320;2023-05-10T07:17:33;13.10;99.90
27506;DHT22;14939;43.596;1.320;2023-05-10T07:19:59;13.20;99.90
27506;DHT22;14939;43.596;1.320;2023-05-10T07:22:25;13.30;99.90
27506;DHT22;14939;43.596;1.320;2023-05-10T07:24:51;13.40;99.90
27506;DHT22;14939;43.596;1.320;2023-05-10T07:27:17;13.80;99.90
27506;DHT22;14939;43.596;1.320;2023-05-10T07:29:43;13.90;99.90
27506;DHT22;14939;43.596;1.320;2023-05-10T07:32:08;13.90;99.90
27506;DHT22;14939;43.596;1.320;2023-05-10T07:34:34;13.60;99.90
27506;DHT22;14939;43.596;1.320;2023-05-10T07:37:00;13.60;99.90
27506;DHT22;14939;43.596;1.320;2023-05-10T07:39:27;13.60;99.90
27506;DHT22;14939;43.596;1.320;2023-05-10T07:41:53;13.90;99.90
27506;DHT22;14939;43.596;1.320;2023-05-10T07:44:19;14.00;99.90
27506;DHT22;14939;43.596;1.320;2023-05-10T07:46:46;13.70;99.90
27506;DHT22;14939;43.596;1.320;2023-05-10T07:49:11;13.70;99.90
27506;DHT22;14939;43.596;1.320;2023-05-10T07:51:37;13.40;99.90
27506;DHT22;14939;43.596;1.320;2023-05-10T07:54:03;13.30;99.90
27506;DHT22;14939;43.596;1.320;2023-05-10T07:56:30;13.70;99.90
27506;DHT22;14939;43.596;1.320;2023-05-10T07:58:57;13.80;99.90
27506;DHT22;14939;43.596;1.320;2023-05-10T08:01:23;13.80;99.90
27506;DHT22;14939;43.596;1.320;2023-05-10T08:03:49;14.10;99.90
27506;DHT22;14939;43.596;1.320;2023-05-10T08:06:17;14.50;99.90
27506;DHT22;14939;43.596;1.320;2023-05-10T08:08:44;14.50;99.90
27506;DHT22;14939;43.596;1.320;2023-05-10T08:11:17;14.50;99.90
27506;DHT22;14939;43.596;1.320;2023-05-10T08:13:44;14.50;99.90
27506;DHT22;14939;43.596;1.320;2023-05-10T08:16:10;14.20;99.90
27506;DHT22;14939;43.596;1.320;2023-05-10T08:18:37;13.90;99.90
27506;DHT22;14939;43.596;1.320;2023-05-10T08:21:03;13.60;99.90
27506;DHT22;14939;43.596;1.320;2023-05-10T08:23:28;13.50;99.90
27506;DHT22;14939;43.596;1.320;2023-05-10T08:25:54;13.80;99.90
27506;DHT22;14939;43.596;1.320;2023-05-10T08:28:20;14.10;99.90
27506;DHT22;14939;43.596;1.320;2023-05-10T08:30:45;14.50;97.40
27506;DHT22;14939;43.596;1.320;2023-05-10T08:33:11;14.80;96.30
27506;DHT22;14939;43.596;1.320;2023-05-10T08:35:37;14.60;95.40
27506;DHT22;14939;43.596;1.320;2023-05-10T08:38:03;14.50;93.50
27506;DHT22;14939;43.596;1.320;2023-05-10T08:40:28;15.00;93.90
27506;DHT22;14939;43.596;1.320;2023-05-10T08:43:04;15.30;93.30
27506;DHT22;14939;43.596;1.320;2023-05-10T08:45:33;15.20;90.20
27506;DHT22;14939;43.596;1.320;2023-05-10T08:48:01;15.00;90.40
27506;DHT22;14939;43.596;1.320;2023-05-10T08:50:27;15.00;87.20
27506;DHT22;14939;43.596;1.320;2023-05-10T08:52:59;15.00;90.50
27506;DHT22;14939;43.596;1.320;2023-05-10T08:55:25;15.00;82.00
27506;DHT22;14939;43.596;1.320;2023-05-10T08:57:51;15.10;86.20
27506;DHT22;14939;43.596;1.320;2023-05-10T09:00:18;15.30;83.10
27506;DHT22;14939;43.596;1.320;2023-05-10T09:02:44;15.30;79.20
27506;DHT22;14939;43.596;1.320;2023-05-10T09:05:12;15.30;77.70
27506;DHT22;14939;43.596;1.320;2023-05-10T09:07:37;15.20;78.20
27506;DHT22;14939;43.596;1.320;2023-05-10T09:10:04;15.60;82.20
27506;DHT22;14939;43.596;1.320;2023-05-10T09:12:30;15.90;75.60
27506;DHT22;14939;43.596;1.320;2023-05-10T09:14:56;16.00;78.30
27506;DHT22;14939;43.596;1.320;2023-05-10T09:17:24;16.20;78.00
27506;DHT22;14939;43.596;1.320;2023-05-10T09:19:57;15.90;74.90
27506;DHT22;14939;43.596;1.320;2023-05-10T09:22:23;15.10;90.70
27506;DHT22;14939;43.596;1.320;2023-05-10T09:25:13;14.60;83.90
27506;DHT22;14939;43.596;1.320;2023-05-10T09:27:40;14.80;82.30
27506;DHT22;14939;43.596;1.320;2023-05-10T09:30:07;15.10;82.30
27506;DHT22;14939;43.596;1.320;2023-05-10T09:32:41;15.10;84.50
27506;DHT22;14939;43.596;1.320;2023-05-10T09:35:15;15.10;80.20
27506;DHT22;14939;43.596;1.320;2023-05-10T09:37:43;15.40;81.30
27506;DHT22;14939;43.596;1.320;2023-05-10T09:40:16;15.50;81.30
27506;DHT22;14939;43.596;1.320;2023-05-10T09:43:06;15.80;78.30
27506;DHT22;14939;43.596;1.320;2023-05-10T09:45:30;15.90;79.00
27506;DHT22;14939;43.596;1.320;2023-05-10T09:47:58;15.90;77.10
27506;DHT22;14939;43.596;1.320;2023-05-10T09:50:25;15.80;68.70
27506;DHT22;14939;43.596;1.320;2023-05-10T09:52:54;15.80;70.50
27506;DHT22;14939;43.596;1.320;2023-05-10T09:55:25;15.90;72.80
27506;DHT22;14939;43.596;1.320;2023-05-10T09:58:01;15.90;67.10
27506;DHT22;14939;43.596;1.320;2023-05-10T10:00:28;16.20;60.20
27506;DHT22;14939;43.596;1.320;2023-05-10T10:02:58;15.80;68.40
27506;DHT22;14939;43.596;1.320;2023-05-10T10:05:35;15.90;69.40
27506;DHT22;14939;43.596;1.320;2023-05-10T10:08:05;15.90;68.10
27506;DHT22;14939;43.596;1.320;2023-05-10T10:10:32;15.50;65.80
27506;DHT22;14939;43.596;1.320;2023-05-10T10:12:58;15.50;64.60
27506;DHT22;14939;43.596;1.320;2023-05-10T10:15:25;15.50;65.20
27506;DHT22;14939;43.596;1.320;2023-05-10T10:17:52;15.50;66.90
27506;DHT22;14939;43.596;1.320;2023-05-10T10:20:19;15.80;66.60
27506;DHT22;14939;43.596;1.320;2023-05-10T10:22:45;15.70;63.80
27506;DHT22;14939;43.596;1.320;2023-05-10T10:25:14;15.70;61.30
27506;DHT22;14939;43.596;1.320;2023-05-10T10:28:11;15.80;59.90
27506;DHT22;14939;43.596;1.320;2023-05-10T10:30:50;15.80;64.00
27506;DHT22;14939;43.596;1.320;2023-05-10T10:36:02;16.30;63.10
27506;DHT22;14939;43.596;1.320;2023-05-10T10:38:55;16.80;62.10
27506;DHT22;14939;43.596;1.320;2023-05-10T10:41:34;16.90;59.10
27506;DHT22;14939;43.596;1.320;2023-05-10T10:52:35;17.20;90.40
27506;DHT22;14939;43.596;1.320;2023-05-10T10:55:12;16.90;58.50
27506;DHT22;14939;43.596;1.320;2023-05-10T11:00:24;16.60;62.50
27506;DHT22;14939;43.596;1.320;2023-05-10T11:02:53;16.80;67.60
27506;DHT22;14939;43.596;1.320;2023-05-10T11:07:56;16.30;65.90
27506;DHT22;14939;43.596;1.320;2023-05-10T11:10:23;15.90;70.00
27506;DHT22;14939;43.596;1.320;2023-05-10T11:13:05;15.50;80.50
27506;DHT22;14939;43.596;1.320;2023-05-10T11:15:33;14.60;88.00
27506;DHT22;14939;43.596;1.320;2023-05-10T11:17:59;14.50;96.30
27506;DHT22;14939;43.596;1.320;2023-05-10T11:20:29;14.80;90.60
27506;DHT22;14939;43.596;1.320;2023-05-10T11:23:11;15.20;87.20
27506;DHT22;14939;43.596;1.320;2023-05-10T11:25:45;15.30;86.00
27506;DHT22;14939;43.596;1.320;2023-05-10T11:28:11;15.20;83.60
27506;DHT22;14939;43.596;1.320;2023-05-10T11:30:42;15.20;82.20
27506;DHT22;14939;43.596;1.320;2023-05-10T11:33:10;15.40;83.80
27506;DHT22;14939;43.596;1.320;2023-05-10T11:35:40;15.80;82.30
27506;DHT22;14939;43.596;1.320;2023-05-10T11:38:10;16.10;77.00
27506;DHT22;14939;43.596;1.320;2023-05-10T11:40:37;16.10;74.40
27506;DHT22;14939;43.596;1.320;2023-05-10T11:43:04;15.80;79.10
27506;DHT22;14939;43.596;1.320;2023-05-10T11:45:34;16.00;81.40
27506;DHT22;14939;43.596;1.320;2023-05-10T11:48:01;16.00;75.50
27506;DHT22;14939;43.596;1.320;2023-05-10T11:50:27;16.00;76.30
27506;DHT22;14939;43.596;1.320;2023-05-10T11:52:54;16.00;70.50
27506;DHT22;14939;43.596;1.320;2023-05-10T11:55:20;16.40;70.70
27506;DHT22;14939;43.596;1.320;2023-05-10T11:57:46;16.60;69.40
27506;DHT22;14939;43.596;1.320;2023-05-10T12:00:13;17.00;65.20
27506;DHT22;14939;43.596;1.320;2023-05-10T12:02:39;17.00;63.50
27506;DHT22;14939;43.596;1.320;2023-05-10T12:05:07;17.10;67.10
27506;DHT22;14939;43.596;1.320;2023-05-10T12:07:33;17.40;65.50
27506;DHT22;14939;43.596;1.320;2023-05-10T12:10:12;16.50;66.10
27506;DHT22;14939;43.596;1.320;2023-05-10T12:12:46;16.10;62.50
27506;DHT22;14939;43.596;1.320;2023-05-10T12:15:23;15.80;67.00
27506;DHT22;14939;43.596;1.320;2023-05-10T12:17:50;15.70;71.70
27506;DHT22;14939;43.596;1.320;2023-05-10T12:20:20;15.90;74.70
27506;DHT22;14939;43.596;1.320;2023-05-10T12:22:52;16.10;73.00
27506;DHT22;14939;43.596;1.320;2023-05-10T12:25:19;16.40;73.00
27506;DHT22;14939;43.596;1.320;2023-05-10T12:27:56;16.60;72.90
27506;DHT22;14939;43.596;1.320;2023-05-10T12:30:27;16.80;70.90
27506;DHT22;14939;43.596;1.320;2023-05-10T12:32:53;16.90;68.30
27506;DHT22;14939;43.596;1.320;2023-05-10T12:35:20;16.90;63.80
27506;DHT22;14939;43.596;1.320;2023-05-10T12:37:47;17.20;62.10
27506;DHT22;14939;43.596;1.320;2023-05-10T12:40:14;17.10;59.40
27506;DHT22;14939;43.596;1.320;2023-05-10T12:42:40;17.30;59.10
27506;DHT22;14939;43.596;1.320;2023-05-10T12:45:07;17.40;56.30
27506;DHT22;14939;43.596;1.320;2023-05-10T12:47:33;17.40;56.30
27506;DHT22;14939;43.596;1.320;2023-05-10T12:50:00;17.50;54.60
27506;DHT22;14939;43.596;1.320;2023-05-10T12:52:27;17.50;52.30
27506;DHT22;14939;43.596;1.320;2023-05-10T12:54:53;17.40;55.30
27506;DHT22;14939;43.596;1.320;2023-05-10T12:57:20;17.70;55.50
27506;DHT22;14939;43.596;1.320;2023-05-10T12:59:46;17.90;52.60
27506;DHT22;14939;43.596;1.320;2023-05-10T13:02:12;17.70;53.80
27506;DHT22;14939;43.596;1.320;2023-05-10T13:04:40;17.70;54.30
27506;DHT22;14939;43.596;1.320;2023-05-10T13:07:06;17.90;52.00
27506;DHT22;14939;43.596;1.320;2023-05-10T13:09:32;17.70;52.00
27506;DHT22;14939;43.596;1.320;2023-05-10T13:11:58;17.40;51.00
27506;DHT22;14939;43.596;1.320;2023-05-10T13:14:24;17.40;53.60
27506;DHT22;14939;43.596;1.320;2023-05-10T13:16:50;17.70;52.50
27506;DHT22;14939;43.596;1.320;2023-05-10T13:19:16;18.10;52.60
27506;DHT22;14939;43.596;1.320;2023-05-10T13:21:42;18.00;53.80
27506;DHT22;14939;43.596;1.320;2023-05-10T13:24:12;18.10;52.80
27506;DHT22;14939;43.596;1.320;2023-05-10T13:26:43;18.30;51.50
27506;DHT22;14939;43.596;1.320;2023-05-10T13:29:11;18.30;49.80
27506;DHT22;14939;43.596;1.320;2023-05-10T13:31:36;18.30;48.70
27506;DHT22;14939;43.596;1.320;2023-05-10T13:34:03;18.40;50.40
27506;DHT22;14939;43.596;1.320;2023-05-10T13:36:28;18.50;51.10
27506;DHT22;14939;43.596;1.320;2023-05-10T13:38:54;18.70;49.30
27506;DHT22;14939;43.596;1.320;2023-05-10T13:41:20;18.30;48.00
27506;DHT22;14939;43.596;1.320;2023-05-10T13:43:46;18.30;47.60
27506;DHT22;14939;43.596;1.320;2023-05-10T13:46:13;18.90;48.80
27506;DHT22;14939;43.596;1.320;2023-05-10T13:48:39;19.00;44.40
27506;DHT22;14939;43.596;1.320;2023-05-10T13:51:05;19.10;45.20
27506;DHT22;14939;43.596;1.320;2023-05-10T13:53:30;18.90;45.10
27506;DHT22;14939;43.596;1.320;2023-05-10T13:55:57;18.00;52.40
27506;DHT22;14939;43.596;1.320;2023-05-10T13:58:23;17.30;56.80
27506;DHT22;14939;43.596;1.320;2023-05-10T14:00:49;17.20;56.10
27506;DHT22;14939;43.596;1.320;2023-05-10T14:03:14;17.00;56.60
27506;DHT22;14939;43.596;1.320;2023-05-10T14:05:40;16.80;56.60
27506;DHT22;14939;43.596;1.320;2023-05-10T14:08:06;16.70;59.00
27506;DHT22;14939;43.596;1.320;2023-05-10T14:10:32;16.70;58.80
27506;DHT22;14939;43.596;1.320;2023-05-10T14:12:58;16.90;59.80
27506;DHT22;14939;43.596;1.320;2023-05-10T14:15:24;16.90;60.30
27506;DHT22;14939;43.596;1.320;2023-05-10T14:17:50;16.60;62.00
27506;DHT22;14939;43.596;1.320;2023-05-10T14:20:15;16.50;65.00
27506;DHT22;14939;43.596;1.320;2023-05-10T14:22:41;16.20;74.50
27506;DHT22;14939;43.596;1.320;2023-05-10T14:25:07;16.20;67.20
27506;DHT22;14939;43.596;1.320;2023-05-10T14:27:33;16.40;66.90
27506;DHT22;14939;43.596;1.320;2023-05-10T14:29:59;16.60;63.90
27506;DHT22;14939;43.596;1.320;2023-05-10T14:32:24;16.80;63.20
27506;DHT22;14939;43.596;1.320;2023-05-10T14:34:52;17.30;61.60
27506;DHT22;14939;43.596;1.320;2023-05-10T14:37:17;17.40;58.90
27506;DHT22;14939;43.596;1.320;2023-05-10T14:39:43;17.30;59.80
27506;DHT22;14939;43.596;1.320;2023-05-10T14:42:09;17.30;59.70
27506;DHT22;14939;43.596;1.320;2023-05-10T14:44:34;17.80;59.10
27506;DHT22;14939;43.596;1.320;2023-05-10T14:47:00;17.90;57.00
27506;DHT22;14939;43.596;1.320;2023-05-10T14:49:26;18.20;56.30
27506;DHT22;14939;43.596;1.320;2023-05-10T14:51:52;18.50;53.40
27506;DHT22;14939;43.596;1.320;2023-05-10T14:54:17;18.20;56.30
27506;DHT22;14939;43.596;1.320;2023-05-10T14:56:43;18.50;52.90
27506;DHT22;14939;43.596;1.320;2023-05-10T14:59:09;18.90;48.90
27506;DHT22;14939;43.596;1.320;2023-05-10T15:01:35;18.40;51.20
27506;DHT22;14939;43.596;1.320;2023-05-10T15:04:04;18.30;50.70
27506;DHT22;14939;43.596;1.320;2023-05-10T15:06:31;20.60;46.90
27506;DHT22;14939;43.596;1.320;2023-05-10T15:08:57;19.50;48.10
27506;DHT22;14939;43.596;1.320;2023-05-10T15:11:24;19.80;47.50
27506;DHT22;14939;43.596;1.320;2023-05-10T15:13:49;18.70;50.40
27506;DHT22;14939;43.596;1.320;2023-05-10T15:16:15;17.70;53.80
27506;DHT22;14939;43.596;1.320;2023-05-10T15:18:41;17.20;54.10
27506;DHT22;14939;43.596;1.320;2023-05-10T15:21:06;16.30;99.90
27506;DHT22;14939;43.596;1.320;2023-05-10T15:23:32;15.00;99.90
27506;DHT22;14939;43.596;1.320;2023-05-10T15:26:00;14.70;99.90
27506;DHT22;14939;43.596;1.320;2023-05-10T15:28:26;13.60;99.90
27506;DHT22;14939;43.596;1.320;2023-05-10T15:30:51;13.20;99.90
27506;DHT22;14939;43.596;1.320;2023-05-10T15:33:17;13.60;99.90
27506;DHT22;14939;43.596;1.320;2023-05-10T15:35:43;13.70;99.90
27506;DHT22;14939;43.596;1.320;2023-05-10T15:38:09;13.70;99.90
27506;DHT22;14939;43.596;1.320;2023-05-10T15:40:35;13.90;99.90
27506;DHT22;14939;43.596;1.320;2023-05-10T15:43:01;14.00;99.90
27506;DHT22;14939;43.596;1.320;2023-05-10T15:45:27;14.50;99.90
27506;DHT22;14939;43.596;1.320;2023-05-10T15:47:52;17.40;99.80
27506;DHT22;14939;43.596;1.320;2023-05-10T15:50:18;17.00;96.20
27506;DHT22;14939;43.596;1.320;2023-05-10T15:52:45;17.30;88.70
27506;DHT22;14939;43.596;1.320;2023-05-10T15:55:12;21.20;88.40
27506;DHT22;14939;43.596;1.320;2023-05-10T15:57:40;22.20;54.60
27506;DHT22;14939;43.596;1.320;2023-05-10T16:00:07;23.80;50.30
27506;DHT22;14939;43.596;1.320;2023-05-10T16:02:35;24.60;39.60
27506;DHT22;14939;43.596;1.320;2023-05-10T16:05:01;24.30;38.00